Time;durP1;ratioP1;P1;durP2;ratioP2;P2;SDS_P1;SDS_P2;PMS_P1;PMS_P2;Temp;Humidity;BMP_temperature;BMP_pressure;BME280_temperature;BME280_humidity;BME280_pressure;Samples;Min_cycle;Max_cycle;Signal;HPM_P1;HPM_P2
2022/10/16 00:01:07;;;;;;;3.78;2.88;;;14.40;99.90;;;;;;5030540;28;20271;-66
2022/10/16 00:03:34;;;;;;;5.38;2.85;;;14.40;99.90;;;;;;5018658;28;20215;-66
2022/10/16 00:06:02;;;;;;;4.70;2.60;;;14.40;99.90;;;;;;4985667;28;20428;-67
2022/10/16 00:08:29;;;;;;;3.80;2.53;;;14.40;99.90;;;;;;5037628;28;20558;-67
2022/10/16 00:11:01;;;;;;;5.95;2.30;;;14.30;99.90;;;;;;4990117;28;20201;-66
2022/10/16 00:13:29;;;;;;;3.63;2.65;;;14.30;99.90;;;;;;5026675;28;20266;-67
2022/10/16 00:15:57;;;;;;;4.40;2.42;;;14.20;99.90;;;;;;5040242;28;20290;-66
2022/10/16 00:18:24;;;;;;;6.97;2.45;;;14.20;99.90;;;;;;5024026;28;20240;-66
2022/10/16 00:20:51;;;;;;;3.13;2.08;;;14.20;99.90;;;;;;5005773;28;20205;-67
2022/10/16 00:23:18;;;;;;;4.95;2.42;;;14.20;99.90;;;;;;5022514;28;20208;-66
2022/10/16 00:25:45;;;;;;;3.25;2.17;;;14.10;99.90;;;;;;5015820;28;20204;-66
2022/10/16 00:28:11;;;;;;;5.43;2.08;;;14.10;99.90;;;;;;5019950;28;20755;-66
2022/10/16 00:30:40;;;;;;;5.80;2.13;;;14.10;99.90;;;;;;5018364;28;20203;-67
2022/10/16 00:33:07;;;;;;;6.28;2.10;;;14.10;99.90;;;;;;5035105;28;20228;-67
2022/10/16 00:35:34;;;;;;;2.40;2.10;;;14.10;99.90;;;;;;5004313;28;20236;-67
2022/10/16 00:38:00;;;;;;;7.43;2.40;;;14.00;99.90;;;;;;5038907;28;20199;-67
2022/10/16 00:40:28;;;;;;;3.05;2.13;;;14.00;99.90;;;;;;5013536;28;20204;-66
2022/10/16 00:42:54;;;;;;;3.25;1.70;;;14.00;99.90;;;;;;5009690;28;20201;-67
2022/10/16 00:45:21;;;;;;;3.50;2.22;;;14.00;99.90;;;;;;5036764;28;20240;-67
2022/10/16 00:47:52;;;;;;;3.42;2.13;;;14.00;99.90;;;;;;5024392;28;20536;-66
2022/10/16 00:50:24;;;;;;;4.80;2.10;;;13.90;99.90;;;;;;5003904;28;20938;-67
2022/10/16 00:52:53;;;;;;;3.40;1.92;;;13.90;99.90;;;;;;5030102;28;20690;-66
2022/10/16 00:55:20;;;;;;;4.50;2.22;;;14.00;99.90;;;;;;5016094;28;20711;-66
2022/10/16 00:57:47;;;;;;;2.42;2.00;;;13.90;99.90;;;;;;5009387;28;20555;-66
2022/10/16 01:00:17;;;;;;;3.00;1.75;;;13.90;99.90;;;;;;5032033;28;20699;-67
2022/10/16 01:02:44;;;;;;;2.08;1.85;;;13.90;99.90;;;;;;5011501;28;20208;-66
2022/10/16 01:05:12;;;;;;;2.22;1.75;;;13.90;99.90;;;;;;5002524;28;20228;-66
2022/10/16 01:07:51;;;;;;;3.67;1.80;;;13.80;99.90;;;;;;5034391;28;20201;-67
2022/10/16 01:10:28;;;;;;;3.53;1.50;;;13.80;99.90;;;;;;5031154;28;20207;-66
2022/10/16 01:13:00;;;;;;;3.80;1.70;;;13.80;99.90;;;;;;4999828;28;20200;-66
2022/10/16 01:15:31;;;;;;;4.88;2.08;;;13.80;99.90;;;;;;5015116;28;20609;-66
2022/10/16 01:18:02;;;;;;;2.00;1.67;;;13.80;99.90;;;;;;5020011;28;20544;-66
2022/10/16 01:20:33;;;;;;;5.97;1.85;;;13.80;99.90;;;;;;5003664;28;20753;-66
2022/10/16 01:23:08;;;;;;;6.13;1.75;;;13.80;99.90;;;;;;5014473;28;20454;-66
2022/10/16 01:25:59;;;;;;;10.15;2.13;;;13.80;99.90;;;;;;5031596;28;20669;-66
2022/10/16 01:28:33;;;;;;;2.83;1.70;;;13.70;99.90;;;;;;5016702;28;20466;-66
2022/10/16 01:31:01;;;;;;;2.13;1.63;;;13.70;99.90;;;;;;5019181;28;20505;-66
2022/10/16 01:33:34;;;;;;;2.58;1.63;;;13.70;99.90;;;;;;5026795;28;20204;-66
2022/10/16 01:36:08;;;;;;;3.03;1.67;;;13.70;99.90;;;;;;4988759;28;20688;-66
2022/10/16 01:38:38;;;;;;;3.90;1.63;;;13.70;99.90;;;;;;5035060;28;21036;-67
2022/10/16 01:41:10;;;;;;;5.15;1.85;;;13.60;99.90;;;;;;5002512;28;20924;-67
2022/10/16 01:43:42;;;;;;;3.38;2.25;;;13.60;99.90;;;;;;5021062;28;20227;-66
2022/10/16 01:46:10;;;;;;;4.75;2.33;;;13.60;99.90;;;;;;5014159;28;20419;-67
2022/10/16 01:48:38;;;;;;;3.30;1.42;;;13.60;99.90;;;;;;5040774;28;20229;-66
2022/10/16 01:51:08;;;;;;;6.32;1.98;;;13.60;99.90;;;;;;4994160;28;20587;-67
2022/10/16 01:53:36;;;;;;;2.38;1.60;;;13.60;99.90;;;;;;5029138;28;20209;-66
2022/10/16 01:56:05;;;;;;;3.22;1.70;;;13.50;99.90;;;;;;5046097;28;21013;-66
2022/10/16 01:58:35;;;;;;;9.75;1.85;;;13.50;99.90;;;;;;5020006;28;20208;-66
2022/10/16 02:01:08;;;;;;;5.70;2.15;;;13.50;99.90;;;;;;5014912;28;20212;-66
2022/10/16 02:03:36;;;;;;;6.15;1.67;;;13.50;99.90;;;;;;5040986;28;20720;-66
2022/10/16 02:06:03;;;;;;;1.90;1.60;;;13.40;99.90;;;;;;4999269;28;20808;-67
2022/10/16 02:08:31;;;;;;;6.95;1.85;;;13.50;99.90;;;;;;5011127;28;20760;-66
2022/10/16 02:11:00;;;;;;;5.22;1.80;;;13.50;99.90;;;;;;5023940;28;20796;-67
2022/10/16 02:13:31;;;;;;;3.83;1.90;;;13.50;99.90;;;;;;5019455;28;20201;-66
2022/10/16 02:15:58;;;;;;;8.57;1.92;;;13.50;99.90;;;;;;5026869;28;20271;-66
2022/10/16 02:18:29;;;;;;;5.47;1.75;;;13.50;99.90;;;;;;5028351;28;20231;-66
2022/10/16 02:20:59;;;;;;;2.95;1.70;;;13.50;99.90;;;;;;5027305;28;21456;-66
2022/10/16 02:23:35;;;;;;;3.78;1.60;;;13.60;99.90;;;;;;5015758;28;20212;-67
2022/10/16 02:26:05;;;;;;;4.35;1.75;;;13.50;99.90;;;;;;5025834;28;20238;-67
2022/10/16 02:28:37;;;;;;;4.18;2.10;;;13.50;99.90;;;;;;5024791;28;20228;-67
2022/10/16 02:31:07;;;;;;;2.83;1.60;;;13.60;99.90;;;;;;5009477;28;20236;-67
2022/10/16 02:33:38;;;;;;;1.95;1.75;;;13.50;99.90;;;;;;5026618;28;20579;-66
2022/10/16 02:36:05;;;;;;;2.03;1.40;;;13.50;99.90;;;;;;5007340;28;20240;-67
2022/10/16 02:38:32;;;;;;;5.13;1.92;;;13.50;99.90;;;;;;5033832;28;20212;-67
2022/10/16 02:40:59;;;;;;;1.80;1.52;;;13.50;99.90;;;;;;5009430;28;20209;-66
2022/10/16 02:43:26;;;;;;;4.72;2.00;;;13.50;99.90;;;;;;5016520;28;23784;-67
2022/10/16 02:45:53;;;;;;;3.72;1.80;;;13.50;99.90;;;;;;5026833;28;20232;-66
2022/10/16 02:48:20;;;;;;;2.03;1.73;;;13.50;99.90;;;;;;5029348;28;22823;-67
2022/10/16 02:50:48;;;;;;;4.93;1.75;;;13.50;99.90;;;;;;5040038;28;20196;-67
2022/10/16 02:53:15;;;;;;;4.95;1.60;;;13.50;99.90;;;;;;5030702;28;20228;-66
2022/10/16 02:55:42;;;;;;;7.63;1.77;;;13.50;99.90;;;;;;4999606;28;20228;-67
2022/10/16 02:58:09;;;;;;;3.25;1.65;;;13.50;99.90;;;;;;5039237;28;20208;-66
2022/10/16 03:00:35;;;;;;;3.70;2.30;;;13.40;99.90;;;;;;5012052;28;20205;-66
2022/10/16 03:03:02;;;;;;;5.63;2.80;;;13.40;99.90;;;;;;5025391;28;20216;-66
2022/10/16 03:05:29;;;;;;;1.90;1.58;;;13.40;99.90;;;;;;5023136;28;20200;-66
2022/10/16 03:07:59;;;;;;;3.28;1.70;;;13.40;99.90;;;;;;5018770;28;20678;-66
2022/10/16 03:10:26;;;;;;;2.55;1.60;;;13.40;99.90;;;;;;5026843;28;20208;-67
2022/10/16 03:12:53;;;;;;;3.70;1.70;;;13.40;99.90;;;;;;5024164;28;20223;-67
2022/10/16 03:15:20;;;;;;;2.60;1.77;;;13.40;99.90;;;;;;5031522;28;20235;-66
2022/10/16 03:17:47;;;;;;;3.85;1.50;;;13.40;99.90;;;;;;5009927;28;20209;-66
2022/10/16 03:20:14;;;;;;;3.17;1.98;;;13.40;99.90;;;;;;5040856;28;20199;-66
2022/10/16 03:22:40;;;;;;;3.15;1.60;;;13.40;99.90;;;;;;5027592;28;20629;-66
2022/10/16 03:25:09;;;;;;;2.08;1.75;;;13.40;99.90;;;;;;5026501;28;20208;-66
2022/10/16 03:27:36;;;;;;;3.67;2.15;;;13.30;99.90;;;;;;5005752;28;21475;-66
2022/10/16 03:30:03;;;;;;;2.45;1.50;;;13.30;99.90;;;;;;5044295;28;20205;-66
2022/10/16 03:32:30;;;;;;;6.82;1.73;;;13.40;99.90;;;;;;5027753;28;20205;-66
2022/10/16 03:34:57;;;;;;;2.00;1.58;;;13.30;99.90;;;;;;5021615;28;20804;-67
2022/10/16 03:37:24;;;;;;;3.25;2.00;;;13.30;99.90;;;;;;5025395;28;21307;-66
2022/10/16 03:39:51;;;;;;;6.75;2.00;;;13.30;99.90;;;;;;5025431;28;22793;-66
2022/10/16 03:42:19;;;;;;;5.68;1.88;;;13.30;99.90;;;;;;5010373;28;20229;-67
2022/10/16 03:44:46;;;;;;;6.35;1.65;;;13.30;99.90;;;;;;5021906;28;20229;-67
2022/10/16 03:47:13;;;;;;;3.15;1.80;;;13.30;99.90;;;;;;5030571;28;20215;-66
2022/10/16 03:49:39;;;;;;;4.72;1.90;;;13.30;99.90;;;;;;5010892;28;20216;-67
2022/10/16 03:52:06;;;;;;;2.97;1.83;;;13.40;99.90;;;;;;5040527;28;20636;-66
2022/10/16 03:54:33;;;;;;;3.45;1.63;;;13.40;99.90;;;;;;5030969;28;20197;-66
2022/10/16 03:57:00;;;;;;;5.28;1.88;;;13.40;99.90;;;;;;5007527;28;20231;-66
2022/10/16 03:59:28;;;;;;;4.38;1.95;;;13.40;99.90;;;;;;5040822;28;20201;-66
2022/10/16 04:01:55;;;;;;;2.38;2.17;;;13.40;99.90;;;;;;5020137;28;20581;-66
2022/10/16 04:04:22;;;;;;;4.63;2.03;;;13.40;99.90;;;;;;5036849;28;20220;-67
2022/10/16 04:06:48;;;;;;;2.28;1.75;;;13.40;99.90;;;;;;5018424;28;20215;-66
2022/10/16 04:09:15;;;;;;;5.00;1.98;;;13.50;99.90;;;;;;5024953;28;20210;-66
2022/10/16 04:11:42;;;;;;;5.15;2.15;;;13.50;99.90;;;;;;4996247;28;20220;-67
2022/10/16 04:14:09;;;;;;;4.40;2.03;;;13.60;99.90;;;;;;5037923;28;20205;-66
2022/10/16 04:16:37;;;;;;;13.68;4.53;;;13.60;99.90;;;;;;5026676;28;20367;-67
2022/10/16 04:19:04;;;;;;;8.60;2.42;;;13.60;99.90;;;;;;5032279;28;21507;-66
2022/10/16 04:21:30;;;;;;;4.20;2.42;;;13.60;99.90;;;;;;5025711;28;20200;-67
2022/10/16 04:23:57;;;;;;;4.65;2.70;;;13.60;99.90;;;;;;5033189;28;20211;-66
2022/10/16 04:26:24;;;;;;;3.85;2.65;;;13.70;99.90;;;;;;5027422;28;20232;-66
2022/10/16 04:28:51;;;;;;;5.30;3.17;;;13.70;99.90;;;;;;5007916;28;20794;-66
2022/10/16 04:31:17;;;;;;;4.97;2.47;;;13.70;99.90;;;;;;5033290;28;20212;-66
2022/10/16 04:33:46;;;;;;;3.97;2.92;;;13.70;99.90;;;;;;5007338;28;20211;-66
2022/10/16 04:36:13;;;;;;;3.25;2.67;;;13.70;99.90;;;;;;5036839;28;20228;-66
2022/10/16 04:38:40;;;;;;;3.00;2.58;;;13.70;99.90;;;;;;5013631;28;20216;-66
2022/10/16 04:41:07;;;;;;;3.90;2.67;;;13.70;99.90;;;;;;5005993;28;20968;-66
2022/10/16 04:43:34;;;;;;;5.60;2.60;;;13.70;99.90;;;;;;5007213;28;20255;-67
2022/10/16 04:46:01;;;;;;;8.50;3.30;;;13.70;99.90;;;;;;5030024;28;20233;-66
2022/10/16 04:48:28;;;;;;;5.03;2.95;;;13.70;99.90;;;;;;5020708;28;20586;-67
2022/10/16 04:50:56;;;;;;;5.07;3.17;;;13.70;99.90;;;;;;5037681;28;20201;-67
2022/10/16 04:53:23;;;;;;;4.38;3.10;;;13.70;99.90;;;;;;5030382;28;20197;-66
2022/10/16 04:55:50;;;;;;;11.02;3.13;;;13.70;99.90;;;;;;5019621;28;20717;-67
2022/10/16 04:58:17;;;;;;;7.15;3.40;;;13.70;99.90;;;;;;5039546;28;20196;-66
2022/10/16 05:00:45;;;;;;;6.30;3.15;;;13.70;99.90;;;;;;4998740;28;20202;-67
2022/10/16 05:03:12;;;;;;;5.82;3.17;;;13.70;99.90;;;;;;5025350;28;20318;-66
2022/10/16 05:05:44;;;;;;;6.38;3.75;;;13.70;99.90;;;;;;5019643;28;20204;-66
2022/10/16 05:08:12;;;;;;;5.82;3.65;;;13.70;99.90;;;;;;5013080;28;20213;-66
2022/10/16 05:10:39;;;;;;;7.60;3.03;;;13.70;99.90;;;;;;5025029;28;20236;-66
2022/10/16 05:13:05;;;;;;;9.77;3.63;;;13.70;99.90;;;;;;5027465;28;20216;-66
2022/10/16 05:15:32;;;;;;;5.63;3.58;;;13.70;99.90;;;;;;4998147;28;20213;-66
2022/10/16 05:17:59;;;;;;;4.57;3.35;;;13.70;99.90;;;;;;5002694;28;20205;-66
2022/10/16 05:20:26;;;;;;;7.05;3.70;;;13.70;99.90;;;;;;5036463;28;20201;-66
2022/10/16 05:22:52;;;;;;;4.65;2.97;;;13.70;99.90;;;;;;5027623;28;20205;-67
2022/10/16 05:25:21;;;;;;;5.07;3.28;;;13.70;99.90;;;;;;5028399;28;20670;-66
2022/10/16 05:27:49;;;;;;;4.15;3.58;;;13.70;99.90;;;;;;4997811;28;20229;-66
2022/10/16 05:30:16;;;;;;;5.13;3.47;;;13.80;99.90;;;;;;5012240;28;20262;-66
2022/10/16 05:32:42;;;;;;;7.53;3.85;;;13.70;99.90;;;;;;5037882;28;20444;-66
2022/10/16 05:35:09;;;;;;;6.30;3.90;;;13.70;99.90;;;;;;5022320;28;20200;-66
2022/10/16 05:37:36;;;;;;;5.68;3.92;;;13.80;99.90;;;;;;5042403;28;20710;-66
2022/10/16 05:40:04;;;;;;;7.22;4.07;;;13.80;99.90;;;;;;5033974;28;20660;-66
2022/10/16 05:42:32;;;;;;;5.97;4.10;;;13.70;99.90;;;;;;5021961;28;20205;-66
2022/10/16 05:44:59;;;;;;;9.45;3.97;;;13.70;99.90;;;;;;5036055;28;20236;-66
2022/10/16 05:47:26;;;;;;;5.50;3.58;;;13.80;99.90;;;;;;5008573;28;20224;-66
2022/10/16 05:49:53;;;;;;;8.48;4.03;;;13.80;99.90;;;;;;5011957;28;20216;-66
2022/10/16 05:52:20;;;;;;;6.93;4.07;;;13.80;99.90;;;;;;5040550;28;20207;-66
2022/10/16 05:54:46;;;;;;;5.63;4.07;;;13.80;99.90;;;;;;5030426;28;20213;-63
2022/10/16 05:57:13;;;;;;;9.70;4.05;;;13.80;99.90;;;;;;5025925;28;20228;-63
2022/10/16 05:59:41;;;;;;;7.07;4.03;;;13.80;99.90;;;;;;5027634;28;20212;-63
2022/10/16 06:02:12;;;;;;;6.05;4.10;;;13.80;99.90;;;;;;4978767;28;22067;-64
2022/10/16 06:04:39;;;;;;;5.90;4.30;;;13.80;99.90;;;;;;5007231;28;20213;-64
2022/10/16 06:07:06;;;;;;;5.97;4.45;;;13.80;99.90;;;;;;5023426;28;20232;-63
2022/10/16 06:09:33;;;;;;;6.97;4.72;;;13.80;99.90;;;;;;5008783;28;20224;-64
2022/10/16 06:11:59;;;;;;;11.73;4.53;;;13.80;99.90;;;;;;5028906;28;20247;-64
2022/10/16 06:14:26;;;;;;;8.15;4.20;;;13.80;99.90;;;;;;4999905;28;20233;-64
2022/10/16 06:16:55;;;;;;;8.93;4.55;;;13.80;99.90;;;;;;5030726;28;20231;-64
2022/10/16 06:19:22;;;;;;;7.20;4.53;;;13.80;99.90;;;;;;5006932;28;20599;-64
2022/10/16 06:21:49;;;;;;;6.10;4.20;;;13.80;99.90;;;;;;5008142;28;20372;-64
2022/10/16 06:24:16;;;;;;;7.30;4.53;;;13.90;99.90;;;;;;5037595;28;20216;-64
2022/10/16 06:26:43;;;;;;;11.45;5.03;;;13.90;99.90;;;;;;5026955;28;20192;-64
2022/10/16 06:29:09;;;;;;;9.18;5.20;;;13.90;99.90;;;;;;5022574;28;20580;-63
2022/10/16 06:31:36;;;;;;;9.50;5.22;;;13.90;99.90;;;;;;5032904;28;20201;-64
2022/10/16 06:34:08;;;;;;;7.55;4.53;;;13.90;99.90;;;;;;5008461;28;20208;-64
2022/10/16 06:36:35;;;;;;;11.70;5.38;;;13.90;99.90;;;;;;4981627;28;20878;-64
2022/10/16 06:39:02;;;;;;;9.13;5.00;;;13.90;99.90;;;;;;5039610;28;20223;-65
2022/10/16 06:41:29;;;;;;;7.88;5.35;;;13.90;99.90;;;;;;5007818;28;20206;-65
2022/10/16 06:43:56;;;;;;;9.85;5.32;;;13.90;99.90;;;;;;5027594;28;20220;-64
2022/10/16 06:46:25;;;;;;;6.95;4.57;;;13.90;99.90;;;;;;5007701;28;20213;-65
2022/10/16 06:48:51;;;;;;;9.23;4.72;;;13.90;99.90;;;;;;4990078;28;21270;-65
2022/10/16 06:51:21;;;;;;;8.40;4.72;;;14.00;99.90;;;;;;4999194;28;20202;-64
2022/10/16 06:53:49;;;;;;;8.95;5.07;;;14.00;99.90;;;;;;4996521;28;20209;-65
2022/10/16 06:56:18;;;;;;;10.88;4.90;;;14.00;99.90;;;;;;5006213;28;20340;-65
2022/10/16 06:58:46;;;;;;;7.25;4.90;;;14.10;99.90;;;;;;5009154;28;20300;-65
2022/10/16 07:01:13;;;;;;;6.50;4.78;;;14.10;99.90;;;;;;5005707;28;20209;-65
2022/10/16 07:03:41;;;;;;;7.55;4.30;;;14.10;99.90;;;;;;5014748;28;20233;-65
2022/10/16 07:06:09;;;;;;;6.43;5.32;;;14.10;99.90;;;;;;4987312;28;20368;-65
2022/10/16 07:08:39;;;;;;;6.40;4.25;;;14.10;99.90;;;;;;4987074;28;20577;-64
2022/10/16 07:11:09;;;;;;;7.35;4.90;;;14.10;99.90;;;;;;4988589;28;20709;-65
2022/10/16 07:13:36;;;;;;;6.65;4.28;;;14.20;99.90;;;;;;5001496;28;20226;-65
2022/10/16 07:16:07;;;;;;;8.65;6.28;;;14.20;99.90;;;;;;4978512;28;22797;-65
2022/10/16 07:18:34;;;;;;;6.03;4.40;;;14.20;99.90;;;;;;5015177;28;20209;-66
2022/10/16 07:21:05;;;;;;;3.95;3.50;;;14.20;99.90;;;;;;4974556;28;20297;-65
2022/10/16 07:23:32;;;;;;;6.40;3.85;;;14.30;99.90;;;;;;5001622;28;21043;-65
2022/10/16 07:26:00;;;;;;;4.97;3.65;;;14.70;99.90;;;;;;4999637;28;20683;-65
2022/10/16 07:28:27;;;;;;;12.40;4.82;;;14.70;99.90;;;;;;5000362;28;20248;-65
2022/10/16 07:30:54;;;;;;;5.65;3.97;;;14.70;99.90;;;;;;5006585;28;20210;-65
2022/10/16 07:33:21;;;;;;;7.03;4.50;;;14.60;99.90;;;;;;4995087;28;20228;-66
2022/10/16 07:35:52;;;;;;;9.43;4.68;;;14.60;99.90;;;;;;4983624;28;20266;-65
2022/10/16 07:38:20;;;;;;;6.68;4.13;;;14.50;99.90;;;;;;4992423;28;20248;-66
2022/10/16 07:40:47;;;;;;;6.20;4.57;;;14.50;99.90;;;;;;5004181;28;20217;-66
2022/10/16 07:43:15;;;;;;;4.95;3.97;;;14.50;99.90;;;;;;4986816;28;20210;-65
2022/10/16 07:45:49;;;;;;;5.57;3.92;;;14.40;99.90;;;;;;5015553;28;20226;-66
2022/10/16 07:48:17;;;;;;;7.95;4.40;;;14.40;99.90;;;;;;4999658;28;21029;-66
2022/10/16 07:50:44;;;;;;;5.72;3.95;;;14.40;99.90;;;;;;4979432;28;20205;-65
2022/10/16 07:53:12;;;;;;;7.53;4.22;;;14.50;99.90;;;;;;5010685;28;20218;-66
2022/10/16 07:55:39;;;;;;;6.32;3.60;;;14.50;99.90;;;;;;4989291;28;20888;-66
2022/10/16 07:58:06;;;;;;;6.70;3.60;;;14.50;99.90;;;;;;4986202;28;21082;-66
2022/10/16 08:00:34;;;;;;;6.28;3.97;;;14.50;99.90;;;;;;5016463;28;20224;-65
2022/10/16 08:03:01;;;;;;;7.72;4.22;;;14.50;99.90;;;;;;4996746;28;21084;-66
2022/10/16 08:05:28;;;;;;;4.13;2.97;;;14.50;99.90;;;;;;5006699;28;20208;-66
2022/10/16 08:07:55;;;;;;;4.80;3.67;;;14.50;99.90;;;;;;4985091;28;20213;-66
2022/10/16 08:10:25;;;;;;;5.55;3.92;;;14.50;99.90;;;;;;4989285;28;21291;-66
2022/10/16 08:12:52;;;;;;;5.55;3.60;;;14.50;99.90;;;;;;5005701;28;20228;-65
2022/10/16 08:15:19;;;;;;;4.10;3.50;;;14.50;99.90;;;;;;5012164;28;20595;-65
2022/10/16 08:17:55;;;;;;;4.15;3.25;;;14.60;99.90;;;;;;5001528;28;20225;-65
2022/10/16 08:20:22;;;;;;;6.28;3.58;;;14.50;99.90;;;;;;5003679;28;20224;-65
2022/10/16 08:22:49;;;;;;;5.60;3.17;;;14.60;99.90;;;;;;4961707;28;20873;-66
2022/10/16 08:25:16;;;;;;;6.72;3.25;;;14.60;99.90;;;;;;5013239;28;20222;-65
2022/10/16 08:27:44;;;;;;;5.68;3.63;;;14.60;99.90;;;;;;4984401;28;20217;-66
2022/10/16 08:30:11;;;;;;;4.75;3.08;;;14.70;99.90;;;;;;4996832;28;20222;-66
2022/10/16 08:32:38;;;;;;;3.03;2.72;;;14.70;99.90;;;;;;4986826;28;20221;-66
2022/10/16 08:35:07;;;;;;;4.22;3.10;;;14.70;99.90;;;;;;5013395;28;20241;-65
2022/10/16 08:37:34;;;;;;;5.05;3.17;;;14.80;99.90;;;;;;4973565;28;20725;-66
2022/10/16 08:40:01;;;;;;;4.75;2.90;;;14.90;99.90;;;;;;5004970;28;20204;-66
2022/10/16 08:42:43;;;;;;;5.85;2.95;;;15.00;99.90;;;;;;4985989;28;20738;-66
2022/10/16 08:45:22;;;;;;;6.70;2.80;;;15.00;99.90;;;;;;5020848;28;20225;-65
2022/10/16 08:47:57;;;;;;;7.63;2.80;;;15.10;99.90;;;;;;5038423;28;20197;-66
2022/10/16 08:50:27;;;;;;;3.17;2.60;;;15.10;99.90;;;;;;5010312;28;20235;-66
2022/10/16 08:52:55;;;;;;;3.13;2.30;;;15.90;99.90;;;;;;5001337;28;20254;-66
2022/10/16 08:55:35;;;;;;;4.07;2.17;;;15.10;99.90;;;;;;5042060;28;21467;-66
2022/10/16 08:58:02;;;;;;;4.93;2.38;;;15.10;99.90;;;;;;5012487;28;20232;-65
2022/10/16 09:00:30;;;;;;;5.65;2.33;;;15.10;99.90;;;;;;5038207;28;20217;-65
2022/10/16 09:03:08;;;;;;;6.53;2.70;;;15.10;99.90;;;;;;5027332;28;20572;-66
2022/10/16 09:05:50;;;;;;;5.07;2.20;;;15.10;99.90;;;;;;5026353;28;20216;-65
2022/10/16 09:08:29;;;;;;;5.28;2.33;;;15.10;99.90;;;;;;5036892;28;20193;-66
2022/10/16 09:11:00;;;;;;;3.15;2.22;;;15.10;99.90;;;;;;5009047;28;20215;-65
2022/10/16 09:13:30;;;;;;;3.05;2.13;;;15.10;99.90;;;;;;5021713;28;20931;-65
2022/10/16 09:16:05;;;;;;;6.50;2.10;;;15.10;99.90;;;;;;5020906;28;20875;-66
2022/10/16 09:18:41;;;;;;;5.13;1.98;;;15.10;99.90;;;;;;5029857;28;20861;-66
2022/10/16 09:21:15;;;;;;;5.57;1.98;;;15.00;99.90;;;;;;5009212;28;20232;-66
2022/10/16 09:23:42;;;;;;;3.20;1.60;;;15.10;99.90;;;;;;5009103;28;20949;-66
2022/10/16 09:26:12;;;;;;;4.35;1.98;;;15.10;99.90;;;;;;5016032;28;20317;-66
2022/10/16 09:28:39;;;;;;;4.60;1.83;;;15.10;99.90;;;;;;5009449;28;20220;-66
2022/10/16 09:31:06;;;;;;;5.03;1.70;;;15.20;99.90;;;;;;5023934;28;20431;-67
2022/10/16 09:33:37;;;;;;;4.95;1.38;;;15.30;99.90;;;;;;5023080;28;20196;-66
2022/10/16 09:36:06;;;;;;;6.05;1.92;;;15.40;99.90;;;;;;4986023;28;20750;-66
2022/10/16 09:38:36;;;;;;;1.95;1.55;;;15.50;99.90;;;;;;5028657;28;20232;-66
2022/10/16 09:41:13;;;;;;;4.80;2.05;;;15.50;99.90;;;;;;4984173;28;21041;-66
2022/10/16 09:43:43;;;;;;;4.13;1.63;;;15.50;99.90;;;;;;5010274;28;20227;-66
2022/10/16 09:46:22;;;;;;;2.17;1.50;;;15.50;99.90;;;;;;4982687;28;20307;-66
2022/10/16 09:48:51;;;;;;;7.55;1.60;;;15.50;99.90;;;;;;4997121;28;20273;-66
2022/10/16 09:51:21;;;;;;;3.58;1.65;;;15.50;99.90;;;;;;4980716;28;20230;-67
2022/10/16 09:53:49;;;;;;;3.50;1.83;;;15.50;99.90;;;;;;5000482;28;20256;-66
2022/10/16 09:56:24;;;;;;;5.25;1.60;;;15.50;99.90;;;;;;4979639;28;20727;-66
2022/10/16 09:58:52;;;;;;;6.75;2.10;;;15.50;99.90;;;;;;4996668;28;20247;-67
2022/10/16 10:01:20;;;;;;;7.70;1.85;;;15.50;99.90;;;;;;4993941;28;20246;-66
2022/10/16 10:03:49;;;;;;;3.85;1.52;;;15.50;99.90;;;;;;4994392;28;20197;-66
2022/10/16 10:06:20;;;;;;;6.43;1.40;;;15.50;99.90;;;;;;4985627;28;20781;-66
2022/10/16 10:08:59;;;;;;;1.98;1.60;;;15.50;99.90;;;;;;5002834;28;20217;-67
2022/10/16 10:11:41;;;;;;;1.55;1.20;;;15.50;99.90;;;;;;4982891;28;20249;-66
2022/10/16 10:14:14;;;;;;;2.30;1.35;;;15.60;99.90;;;;;;5013054;28;21353;-67
2022/10/16 10:16:41;;;;;;;2.25;1.05;;;15.60;99.90;;;;;;5005001;28;20901;-67
2022/10/16 10:19:15;;;;;;;3.10;1.33;;;15.70;99.90;;;;;;5003593;28;20249;-66
2022/10/16 10:21:42;;;;;;;2.78;1.20;;;15.70;99.90;;;;;;4998287;28;20600;-66
2022/10/16 10:24:13;;;;;;;2.55;1.27;;;16.70;99.90;;;;;;5007669;28;20316;-66
2022/10/16 10:26:46;;;;;;;1.30;1.13;;;15.90;99.90;;;;;;4998473;28;20245;-67
2022/10/16 10:29:24;;;;;;;3.17;1.05;;;15.90;99.90;;;;;;4986142;28;20230;-66
2022/10/16 10:31:57;;;;;;;8.60;1.65;;;15.90;99.90;;;;;;5005166;28;20205;-66
2022/10/16 10:34:40;;;;;;;2.08;1.27;;;15.90;99.90;;;;;;4991114;28;20212;-66
2022/10/16 10:37:21;;;;;;;3.50;1.40;;;15.90;99.90;;;;;;5003780;28;20256;-66
2022/10/16 10:39:59;;;;;;;2.80;1.40;;;15.90;99.90;;;;;;4995530;28;20236;-66
2022/10/16 10:42:30;;;;;;;4.05;1.38;;;16.00;99.90;;;;;;5020004;28;20768;-66
2022/10/16 10:45:13;;;;;;;3.75;1.35;;;16.00;99.90;;;;;;4999826;28;20231;-66
2022/10/16 10:47:49;;;;;;;4.00;1.02;;;16.00;99.90;;;;;;5018110;28;20212;-65
2022/10/16 10:50:23;;;;;;;4.30;1.13;;;16.00;99.90;;;;;;5026951;28;20216;-66
2022/10/16 10:53:01;;;;;;;3.67;1.20;;;16.00;99.90;;;;;;5024142;28;20216;-66
2022/10/16 10:55:39;;;;;;;2.90;0.95;;;16.00;99.90;;;;;;5028176;28;20224;-66
2022/10/16 10:58:38;;;;;;;2.15;1.00;;;16.10;99.90;;;;;;5002141;28;20243;-66
2022/10/16 11:01:10;;;;;;;1.77;1.25;;;16.10;99.90;;;;;;5030564;28;20220;-66
2022/10/16 11:03:58;;;;;;;4.05;0.80;;;16.20;99.90;;;;;;5022954;28;20236;-66
2022/10/16 11:06:31;;;;;;;2.40;2.00;;;16.20;99.90;;;;;;5038772;28;20204;-67
2022/10/16 11:09:04;;;;;;;1.77;1.13;;;16.20;99.90;;;;;;5026973;28;20209;-66
2022/10/16 11:11:38;;;;;;;3.60;1.00;;;16.20;99.90;;;;;;5024742;28;20201;-67
2022/10/16 11:14:12;;;;;;;4.18;1.00;;;16.20;99.90;;;;;;5003544;28;20208;-66
2022/10/16 11:16:44;;;;;;;3.10;1.27;;;16.20;99.90;;;;;;5006921;28;20221;-66
2022/10/16 11:19:17;;;;;;;1.42;1.17;;;16.20;99.90;;;;;;5026786;28;20229;-66
2022/10/16 11:21:50;;;;;;;4.53;2.20;;;16.20;99.90;;;;;;5010383;28;20232;-66
2022/10/16 11:24:22;;;;;;;14.73;1.65;;;16.30;99.90;;;;;;5024364;28;20225;-65
2022/10/16 11:26:55;;;;;;;7.43;1.27;;;16.30;99.90;;;;;;4994587;28;20381;-66
2022/10/16 11:29:27;;;;;;;3.30;1.10;;;16.40;99.90;;;;;;4998227;28;20678;-66
2022/10/16 11:32:00;;;;;;;1.90;1.20;;;16.30;99.90;;;;;;5016969;28;20209;-66
2022/10/16 11:34:32;;;;;;;4.13;1.10;;;16.50;99.90;;;;;;4998121;28;20229;-66
2022/10/16 11:37:06;;;;;;;3.25;1.23;;;16.50;99.90;;;;;;5026003;28;20221;-66
2022/10/16 11:39:34;;;;;;;4.72;1.65;;;16.50;99.90;;;;;;5014327;28;20224;-66
2022/10/16 11:42:08;;;;;;;3.92;1.02;;;16.50;99.90;;;;;;5005221;28;20885;-65
2022/10/16 11:44:45;;;;;;;5.03;1.48;;;16.60;99.90;;;;;;5003319;28;20886;-66
2022/10/16 11:47:28;;;;;;;6.30;1.10;;;16.70;99.90;;;;;;5014499;28;20451;-65
2022/10/16 11:50:02;;;;;;;1.65;1.02;;;16.60;99.90;;;;;;5014633;28;20204;-66
2022/10/16 11:52:36;;;;;;;11.38;1.40;;;16.50;99.90;;;;;;5024518;28;22975;-65
2022/10/16 11:55:10;;;;;;;5.43;1.30;;;16.40;99.90;;;;;;5014786;28;20220;-66
2022/10/16 11:57:43;;;;;;;7.20;1.45;;;16.40;99.90;;;;;;4985170;28;20224;-65
2022/10/16 12:00:18;;;;;;;3.25;1.33;;;16.30;99.90;;;;;;4991160;28;20235;-65
2022/10/16 12:02:58;;;;;;;6.60;1.58;;;16.20;99.90;;;;;;4994701;28;20205;-65
2022/10/16 12:05:34;;;;;;;3.90;1.00;;;16.20;99.90;;;;;;5015065;28;20978;-65
2022/10/16 12:08:10;;;;;;;7.78;1.38;;;16.30;99.90;;;;;;5013858;28;20228;-65
2022/10/16 12:10:39;;;;;;;12.02;1.33;;;16.40;99.90;;;;;;5035275;28;20229;-65
2022/10/16 12:13:30;;;;;;;7.40;1.40;;;16.50;99.90;;;;;;5009922;28;20228;-65
2022/10/16 12:16:06;;;;;;;6.03;1.30;;;16.60;99.90;;;;;;4980648;28;20233;-65
2022/10/16 12:18:33;;;;;;;4.68;1.02;;;16.60;99.90;;;;;;5011283;28;20248;-65
2022/10/16 12:21:05;;;;;;;5.57;1.23;;;16.70;99.90;;;;;;5001410;28;20204;-65
2022/10/16 12:23:33;;;;;;;5.93;1.42;;;16.70;99.90;;;;;;5017075;28;20221;-65
2022/10/16 12:26:02;;;;;;;6.78;1.27;;;16.60;99.90;;;;;;5035502;28;20232;-65
2022/10/16 12:28:32;;;;;;;2.90;1.42;;;16.60;99.90;;;;;;5001905;28;20232;-64
2022/10/16 12:31:01;;;;;;;3.72;1.13;;;16.70;99.90;;;;;;5002509;28;20231;-65
2022/10/16 12:33:30;;;;;;;6.07;1.15;;;16.80;99.90;;;;;;5015743;28;20205;-65
2022/10/16 12:35:59;;;;;;;5.20;1.02;;;16.80;99.90;;;;;;5015348;28;20773;-65
2022/10/16 12:38:28;;;;;;;4.43;1.33;;;16.80;99.90;;;;;;5031905;28;20247;-65
2022/10/16 12:40:59;;;;;;;2.58;1.38;;;16.90;99.90;;;;;;5036039;28;20201;-66
2022/10/16 12:43:42;;;;;;;5.53;1.40;;;16.90;99.90;;;;;;5023858;28;20225;-65
2022/10/16 12:46:25;;;;;;;6.00;1.40;;;16.90;99.90;;;;;;5011866;28;21183;-65
2022/10/16 12:48:52;;;;;;;4.97;1.30;;;16.80;99.90;;;;;;5025553;28;20239;-65
2022/10/16 12:51:36;;;;;;;3.75;0.95;;;16.80;99.90;;;;;;5013272;28;20299;-65
2022/10/16 12:54:04;;;;;;;6.55;1.33;;;16.80;99.90;;;;;;5041623;28;20197;-65
2022/10/16 12:56:42;;;;;;;4.10;1.25;;;16.70;99.90;;;;;;5020939;28;20205;-65
2022/10/16 12:59:22;;;;;;;6.43;1.48;;;16.60;99.90;;;;;;5027297;28;20236;-65